LFBO/TLS METAR and TAF weather

Enter ICAO airport designator
Station Type Date Time Source
LFBO METAR 2019/08/24 17:30 UTC NOAA

LFBO 241730Z AUTO VRB03KT CAVOK 33/12 Q1016 NOSIG


Station Type Date Time Source
LFBO Decoded METAR 2019/08/24 17:30 UTC NOAA

Station name not available
Aug 24, 2019 - 01:30 PM EDT / 2019.08.24 1730 UTC
Wind: Variable at 3 MPH (3 KT):0
Visibility: greater than 7 mile(s):0
Temperature: 91 F (33 C)
Dew Point: 53 F (12 C)
Relative Humidity: 27%
Pressure (altimeter): 30.00 in. Hg (1016 hPa)
ob: LFBO 241730Z AUTO VRB03KT CAVOK 33/12 Q1016 NOSIG
cycle: 17

Station Type Date Time Source
LFBO TAF 2019/08/24 18:21 UTC NOAA

TAF LFBO 241700Z 2418/2524 VRB03KT CAVOK
BECMG 2501/2503 28006KT OVC008
BECMG 2508/2510 CAVOK
BECMG 2513/2515 VRB02KT

Example: see airport list